Flight Track Log - Related Links

Times and Time Zones

All times are in EDT time to prevent confusion due to time zone crossing. See the EJA922 flight status page for this flight to view local times or setup timezone preferences in your user account.

Time Position Orientation Groundspeed Altitude Reporting Facility
EDT Latitude Longitude Course Direction KTS MPH feet Rate Location/Type
Sat 05:21:03 PM 43.0978 -89.2322 95° East 250 288 8,000  Level Chicago Center
Sat 05:22:04 PM 43.1003 -89.1303 88° East 267 307 11,900 3,317 Climbing Chicago Center
Sat 05:23:06 PM 43.1036 -89.0147 88° East 302 348 14,800 2,323 Climbing Chicago Center
Sat 05:24:08 PM 43.1056 -88.8883 89° East 329 379 16,700 1,500 Climbing Chicago Center
Sat 05:25:00 PM 43.0116 -87.8757 100° East  Level FlightAware Approximate
Sat 05:25:10 PM 43.1025 -88.7508 92° East 358 412 17,900  Level Chicago Center
Sat 05:26:12 PM 43.0875 -88.5861 97° East 375 432 20,000 1,707 Climbing Chicago Center
Sat 05:27:13 PM 43.0753 -88.4419 97° East 383 441 21,400 1,659 Climbing Chicago Center
Sat 05:28:15 PM 43.0631 -88.3019 97° East 378 435 23,400 1,597 Climbing Chicago Center
Sat 05:29:17 PM 43.0511 -88.1592 96° East 378 435 24,700 1,258 Climbing Chicago Center
Sat 05:30:19 PM 43.0378 -88.0128 97° East 385 443 26,000 1,317 Climbing Chicago Center
Sat 05:31:20 PM 43.0336 -87.8386 92° East 394 453 27,400 1,268 Climbing Chicago Center
Sat 05:32:22 PM 43.0544 -87.6872 79° East 407 468 28,600 1,500 Climbing Chicago Center
Sat 05:33:24 PM 43.0733 -87.5397 80° East 396 456 30,500 1,403 Climbing Chicago Center
Sat 05:34:26 PM 43.0719 -87.3883 91° East 405 466 31,500 927 Climbing Chicago Center
Sat 05:35:27 PM 43.0519 -87.2461 101° East 408 470 32,400 927 Climbing Chicago Center
Sat 05:36:29 PM 43.0297 -87.0886 101° East 419 482 33,400 1,065 Climbing Chicago Center
Sat 05:37:31 PM 43.0019 -86.9000 101° East 425 489 34,600 1,161 Climbing Chicago Center
Sat 05:38:33 PM 42.9778 -86.7392 102° East 433 498 35,800 1,306 Climbing Chicago Center
Sat 05:39:35 PM 42.9542 -86.5778 101° East 435 501 37,300 1,463 Climbing Chicago Center
Sat 05:40:36 PM 42.9292 -86.4200 102° East 430 495 38,800 1,415 Climbing Chicago Center
Sat 05:41:38 PM 42.9042 -86.2636 102° East 426 490 40,200 1,065 Climbing Chicago Center
Sat 05:42:40 PM 42.8728 -86.0750 103° East 433 498 41,000 387 Climbing Chicago Center
Sat 05:43:42 PM 42.8489 -85.9092 101° East 459 528 41,000  Level Chicago Center
Sat 05:44:44 PM 42.8236 -85.7414 102° East 462 532 41,000  Level Chicago Center
Sat 05:45:45 PM 42.7986 -85.5736 101° East 459 528 41,000  Level Chicago Center
Sat 05:46:47 PM 42.7686 -85.4050 104° East 461 531 41,000  Level Chicago Center
Sat 05:47:49 PM 42.7311 -85.2036 104° East 461 531 41,000  Level Chicago Center
Sat 05:48:51 PM 42.6981 -85.0344 105° East 463 533 41,000  Level Chicago Center
Sat 05:49:53 PM 42.6650 -84.8661 105° East 463 533 41,000  Level Chicago Center
Sat 05:50:54 PM 42.6322 -84.6958 105° East 467 537 41,000  Level Chicago Center
Sat 05:51:56 PM 42.5983 -84.5225 105° East 474 545 41,000  Level Chicago Center
Sat 05:52:58 PM 42.5642 -84.3475 105° East 482 555 41,000  Level Chicago Center
Sat 05:53:36 PM 42.5342 -84.2156 107° East 468 539 41,000  Level Cleveland Center
Sat 05:54:36 PM 42.4981 -84.0389 105° East 473 544 41,000  Level Cleveland Center
Sat 05:55:36 PM 42.4633 -83.8653 105° East 479 551 41,000  Level Cleveland Center
Sat 05:56:36 PM 42.4286 -83.6889 105° East 479 551 41,000  Level Cleveland Center
Sat 05:57:36 PM 42.4022 -83.5103 101° East 479 551 41,000  Level Cleveland Center
Sat 05:58:36 PM 42.3983 -83.3275 92° East 479 551 41,000  Level Cleveland Center
Sat 05:59:36 PM 42.3942 -83.1417 92° East 489 563 41,000  Level Cleveland Center
Sat 06:00:36 PM 42.3856 -82.9614 94° East 489 563 41,000  Level Cleveland Center
Sat 06:01:36 PM 42.3808 -82.7756 92° East 489 563 41,000  Level Cleveland Center
Sat 06:02:36 PM 42.3739 -82.5900 93° East 489 563 41,000  Level Cleveland Center
Sat 06:03:36 PM 42.3664 -82.4069 93° East 489 563 41,000  Level Cleveland Center
Sat 06:04:36 PM 42.3569 -82.2214 94° East 495 570 41,000  Level Cleveland Center
Sat 06:05:36 PM 42.3528 -82.0583 92° East 495 570 41,000  Level Cleveland Center
Sat 06:06:36 PM 42.3447 -81.8697 93° East 503 579 41,000  Level Cleveland Center
Sat 06:07:36 PM 42.3361 -81.6842 94° East 498 573 41,000  Level Cleveland Center
Sat 06:08:36 PM 42.3272 -81.4958 94° East 498 573 41,000  Level Cleveland Center
Sat 06:09:36 PM 42.3164 -81.2908 94° East 498 573 41,000  Level Cleveland Center
Sat 06:10:36 PM 42.3069 -81.0942 94° East 503 579 41,000  Level Cleveland Center
Sat 06:11:36 PM 42.2972 -80.9031 94° East 509 586 41,000  Level Cleveland Center
Sat 06:12:36 PM 42.2850 -80.7094 95° East 516 594 41,000  Level Cleveland Center
Sat 06:13:36 PM 42.2747 -80.5186 94° East 515 593 41,000  Level Cleveland Center
Sat 06:14:36 PM 42.2639 -80.3222 94° East 523 602 41,000  Level Cleveland Center
Sat 06:15:36 PM 42.2550 -80.1286 93° East 518 596 41,000  Level Cleveland Center
Sat 06:16:36 PM 42.2439 -79.9550 95° East 513 590 41,000  Level Cleveland Center
Sat 06:17:36 PM 42.2322 -79.7644 95° East 513 590 41,000  Level Cleveland Center
Sat 06:18:36 PM 42.2078 -79.5769 100° East 513 590 41,000  Level Cleveland Center
Sat 06:19:36 PM 42.1725 -79.3842 104° East 520 598 41,000  Level Cleveland Center
Sat 06:20:36 PM 42.1350 -79.2000 105° East 520 598 41,000  Level Cleveland Center
Sat 06:21:36 PM 42.0994 -79.0106 104° East 520 598 41,000  Level Cleveland Center
Sat 06:22:36 PM 42.0611 -78.8239 105° East 520 598 41,000 -200 Level Cleveland Center
Sat 06:23:36 PM 42.0247 -78.6378 105° East 515 593 40,600 -1,200 Descending Cleveland Center
Sat 06:24:36 PM 41.9881 -78.4517 105° East 510 587 38,600 -2,054 Descending Cleveland Center
Sat 06:26:40 PM 41.9064 -78.0533 105° East 528 608 34,300 -1,524 Descending New York Center
Sat 06:27:41 PM 41.8656 -77.8675 106° East 528 608 33,900 -645 Descending New York Center
Sat 06:28:41 PM 41.8181 -77.6817 109° East 528 608 33,000 -458 Descending New York Center
Sat 06:29:39 PM 41.7706 -77.4931 109° East 528 608 33,000  Level New York Center
Sat 06:30:40 PM 41.7206 -77.3100 110° East 534 615 33,000 -934 Level New York Center
Sat 06:31:41 PM 41.6700 -77.1275 110° East 534 615 31,100 -1,966 Descending New York Center
Sat 06:32:39 PM 41.6231 -76.9481 109° East 518 596 29,100 -2,000 Descending New York Center
Sat 06:33:41 PM 41.5742 -76.7661 110° East 518 596 27,100 -1,854 Descending New York Center
Sat 06:34:42 PM 41.5300 -76.6069 110° East 518 596 25,300 -1,576 Descending New York Center
Sat 06:35:39 PM 41.4803 -76.4308 111° Southeast 518 596 24,000 -661 Descending New York Center
Sat 06:36:40 PM 41.4383 -76.2586 108° East 507 583 24,000  Level New York Center
Sat 06:37:40 PM 41.3819 -76.0769 112° Southeast 493 567 24,000 -1,210 Level New York Center
Sat 06:38:39 PM 41.3369 -75.9186 111° Southeast 472 543 21,600 -2,471 Descending New York Center
Sat 06:39:39 PM 41.2936 -75.7608 110° East 459 528 19,100 -2,430 Descending New York Center
Sat 06:40:40 PM 41.2439 -75.6053 113° Southeast 459 528 16,700 -2,439 Descending New York Center
Sat 06:41:42 PM 41.1975 -75.4614 113° Southeast 434 499 14,100 -2,521 Descending New York Center
Sat 06:42:39 PM 41.1528 -75.3286 114° Southeast 414 476 11,700 -2,136 Descending New York Center
Sat 06:43:40 PM 41.1192 -75.2272 114° Southeast 361 415 9,900 -1,650 Descending New York Center
Sat 06:44:39 PM 41.0853 -75.1289 115° Southeast 316 364 8,400 -1,636 Descending New York Center
Sat 06:45:41 PM 41.0497 -75.0219 114° Southeast 287 330 6,600 -1,180 Descending New York Center
Sat 06:46:41 PM 41.0219 -74.9267 111° Southeast 282 325 6,000 -645 Descending New York Center
Sat 06:47:42 PM 41.0214 -74.8222 90° East 277 319 5,300 -864 Descending New York Center
Sat 06:48:39 PM 41.0222 -74.7286 89° East 282 325 4,300 -974 Descending New York Center
Sat 06:49:39 PM 41.0239 -74.6214 89° East 271 312 3,400 -690 Descending New York Center
Sat 06:50:32 PM 41.0333 -74.5333 82° East 250 288 3,000 -212 Descending New York TRACON
Sat 06:51:32 PM 41.0333 -74.4500 90° East 263 303 3,000  Level New York TRACON
Sat 06:52:32 PM 41.0333 -74.3500 90° East 259 298 3,000  Level New York TRACON
Sat 06:53:27 PM 41.0333 -74.2667 90° East 235 270 3,000 -500 Level New York TRACON
Sat 06:54:32 PM 41.0333 -74.1833 90° East 198 228 2,000 -476 Descending New York TRACON
Sat 06:55:33 PM 41.0333 -74.1167 90° East 207 238 2,000  Level New York TRACON
Sat 06:56:33 PM 41.0000 -74.0500 124° Southeast 204 235 2,000 -53 Level New York TRACON
Sat 06:57:27 PM 40.9500 -74.0500 180° South 190 219 1,900 -474 Descending New York TRACON
Sat 06:58:27 PM 40.9000 -74.0500 180° South 143 165 1,100 -800 Descending New York TRACON
Sat 06:59:27 PM 40.8667 -74.0667 201° Southwest 143 165 300 1,515 Descending New York TRACON
Sat 07:01:41 PM 40.7758 -74.0703 182° South 148 170 6,000 1,754 Climbing New York Center
Sat 07:02:42 PM 40.7342 -74.0767 187° South 148 170 6,000  Level New York Center
Sat 07:03:40 PM 40.6922 -74.0800 183° South 148 170 6,000  Level New York Center
Sat 07:04:42 PM 40.6922 -74.0800 360° North 148 170 6,000  Level New York Center
Sat 07:06:00 PM 40.8390 -74.0521 North  Level FlightAware Approximate

Login

Don't have an account? Register now (free) for customized features, flight alerts, and more!